sensor_id;sensor_type;location;lat;lon;timestamp;pressure;altitude;pressure_sealevel;temperature;humidity
12471;BME280;36499;46.484;13.832;2023-04-24T00:01:42;92322.97;;;12.58;65.63
12471;BME280;36499;46.484;13.832;2023-04-24T00:04:10;92326.63;;;12.57;65.66
12471;BME280;36499;46.484;13.832;2023-04-24T00:06:39;92316.75;;;12.64;65.92
12471;BME280;36499;46.484;13.832;2023-04-24T00:09:08;92308.25;;;12.52;67.80
12471;BME280;36499;46.484;13.832;2023-04-24T00:11:36;92309.03;;;12.52;66.39
12471;BME280;36499;46.484;13.832;2023-04-24T00:14:04;92307.03;;;12.60;66.06
12471;BME280;36499;46.484;13.832;2023-04-24T00:16:32;92306.31;;;12.64;66.82
12471;BME280;36499;46.484;13.832;2023-04-24T00:18:59;92302.44;;;12.67;66.78
12471;BME280;36499;46.484;13.832;2023-04-24T00:21:26;92301.88;;;12.65;67.43
12471;BME280;36499;46.484;13.832;2023-04-24T00:23:53;92295.81;;;12.59;67.54
12471;BME280;36499;46.484;13.832;2023-04-24T00:26:20;92293.19;;;12.59;67.40
12471;BME280;36499;46.484;13.832;2023-04-24T00:28:48;92283.97;;;12.57;67.68
12471;BME280;36499;46.484;13.832;2023-04-24T00:31:15;92289.72;;;12.54;67.51
12471;BME280;36499;46.484;13.832;2023-04-24T00:33:44;92289.94;;;12.52;67.46
12471;BME280;36499;46.484;13.832;2023-04-24T00:36:11;92286.22;;;12.48;67.72
12471;BME280;36499;46.484;13.832;2023-04-24T00:38:38;92290.63;;;12.42;68.16
12471;BME280;36499;46.484;13.832;2023-04-24T00:41:05;92287.44;;;12.40;68.09
12471;BME280;36499;46.484;13.832;2023-04-24T00:43:33;92277.25;;;12.39;68.14
12471;BME280;36499;46.484;13.832;2023-04-24T00:46:00;92277.75;;;12.36;68.32
12471;BME280;36499;46.484;13.832;2023-04-24T00:48:28;92271.91;;;12.29;68.36
12471;BME280;36499;46.484;13.832;2023-04-24T00:50:56;92272.94;;;12.28;68.35
12471;BME280;36499;46.484;13.832;2023-04-24T00:53:24;92273.34;;;12.20;68.57
12471;BME280;36499;46.484;13.832;2023-04-24T00:55:51;92269.16;;;12.19;68.58
12471;BME280;36499;46.484;13.832;2023-04-24T00:58:19;92259.97;;;12.16;68.74
12471;BME280;36499;46.484;13.832;2023-04-24T01:00:47;92261.78;;;12.16;69.03
12471;BME280;36499;46.484;13.832;2023-04-24T01:03:16;92255.28;;;12.18;69.13
12471;BME280;36499;46.484;13.832;2023-04-24T01:05:44;92251.66;;;12.19;68.96
12471;BME280;36499;46.484;13.832;2023-04-24T01:08:14;92242.88;;;11.87;70.02
12471;BME280;36499;46.484;13.832;2023-04-24T01:10:41;92246.63;;;11.74;70.98
12471;BME280;36499;46.484;13.832;2023-04-24T01:13:10;92255.84;;;11.65;71.46
12471;BME280;36499;46.484;13.832;2023-04-24T01:15:37;92242.41;;;11.56;71.74
12471;BME280;36499;46.484;13.832;2023-04-24T01:18:05;92240.75;;;11.50;71.23
12471;BME280;36499;46.484;13.832;2023-04-24T01:20:33;92232.91;;;11.50;71.29
12471;BME280;36499;46.484;13.832;2023-04-24T01:23:03;92228.97;;;11.48;71.58
12471;BME280;36499;46.484;13.832;2023-04-24T01:25:31;92230.16;;;11.40;71.58
12471;BME280;36499;46.484;13.832;2023-04-24T01:27:59;92231.97;;;11.40;71.91
12471;BME280;36499;46.484;13.832;2023-04-24T01:30:27;92224.88;;;11.35;71.60
12471;BME280;36499;46.484;13.832;2023-04-24T01:32:55;92224.94;;;11.40;72.33
12471;BME280;36499;46.484;13.832;2023-04-24T01:35:22;92231.91;;;11.35;72.45
12471;BME280;36499;46.484;13.832;2023-04-24T01:37:49;92231.59;;;11.31;72.88
12471;BME280;36499;46.484;13.832;2023-04-24T01:40:18;92226.75;;;11.23;73.69
12471;BME280;36499;46.484;13.832;2023-04-24T01:42:45;92218.94;;;11.23;73.45
12471;BME280;36499;46.484;13.832;2023-04-24T01:45:12;92222.13;;;11.25;73.10
12471;BME280;36499;46.484;13.832;2023-04-24T01:47:40;92230.41;;;11.22;73.64
12471;BME280;36499;46.484;13.832;2023-04-24T01:50:09;92225.25;;;11.27;73.46
12471;BME280;36499;46.484;13.832;2023-04-24T01:52:36;92225.25;;;11.27;73.65
12471;BME280;36499;46.484;13.832;2023-04-24T01:55:05;92220.03;;;11.27;73.70
12471;BME280;36499;46.484;13.832;2023-04-24T01:57:34;92217.44;;;11.27;73.40
12471;BME280;36499;46.484;13.832;2023-04-24T02:00:02;92217.22;;;11.29;74.08
12471;BME280;36499;46.484;13.832;2023-04-24T02:02:31;92208.19;;;11.20;73.89
12471;BME280;36499;46.484;13.832;2023-04-24T02:04:58;92203.59;;;11.27;74.21
12471;BME280;36499;46.484;13.832;2023-04-24T02:07:26;92206.59;;;11.35;73.86
12471;BME280;36499;46.484;13.832;2023-04-24T02:09:53;92209.78;;;11.37;73.63
12471;BME280;36499;46.484;13.832;2023-04-24T02:12:21;92209.28;;;11.40;74.16
12471;BME280;36499;46.484;13.832;2023-04-24T02:14:49;92196.47;;;11.39;73.80
12471;BME280;36499;46.484;13.832;2023-04-24T02:17:17;92196.25;;;11.40;73.54
12471;BME280;36499;46.484;13.832;2023-04-24T02:19:45;92197.56;;;11.43;73.74
12471;BME280;36499;46.484;13.832;2023-04-24T02:22:12;92199.69;;;11.46;73.99
12471;BME280;36499;46.484;13.832;2023-04-24T02:24:39;92188.00;;;11.48;73.57
12471;BME280;36499;46.484;13.832;2023-04-24T02:27:06;92183.03;;;11.47;73.45
12471;BME280;36499;46.484;13.832;2023-04-24T02:29:34;92179.94;;;11.50;73.00
12471;BME280;36499;46.484;13.832;2023-04-24T02:32:03;92177.41;;;11.55;73.57
12471;BME280;36499;46.484;13.832;2023-04-24T02:34:30;92169.63;;;11.60;73.78
12471;BME280;36499;46.484;13.832;2023-04-24T02:36:57;92175.09;;;11.59;74.38
12471;BME280;36499;46.484;13.832;2023-04-24T02:39:24;92174.88;;;11.60;74.19
12471;BME280;36499;46.484;13.832;2023-04-24T02:41:51;92171.50;;;11.65;72.64
12471;BME280;36499;46.484;13.832;2023-04-24T02:44:18;92165.56;;;11.69;72.89
12471;BME280;36499;46.484;13.832;2023-04-24T02:46:45;92168.97;;;11.70;72.80
12471;BME280;36499;46.484;13.832;2023-04-24T02:49:13;92171.03;;;11.68;73.15
12471;BME280;36499;46.484;13.832;2023-04-24T02:51:41;92175.16;;;11.64;74.12
12471;BME280;36499;46.484;13.832;2023-04-24T02:54:08;92168.59;;;11.61;74.15
12471;BME280;36499;46.484;13.832;2023-04-24T02:56:35;92171.38;;;11.54;74.71
12471;BME280;36499;46.484;13.832;2023-04-24T02:59:02;92171.16;;;11.56;74.26
12471;BME280;36499;46.484;13.832;2023-04-24T03:01:30;92162.34;;;11.62;73.69
12471;BME280;36499;46.484;13.832;2023-04-24T03:03:57;92161.56;;;11.62;74.02
12471;BME280;36499;46.484;13.832;2023-04-24T03:06:26;92154.75;;;11.61;74.79
12471;BME280;36499;46.484;13.832;2023-04-24T03:08:53;92152.38;;;11.59;74.95
12471;BME280;36499;46.484;13.832;2023-04-24T03:11:21;92154.69;;;11.55;75.68
12471;BME280;36499;46.484;13.832;2023-04-24T03:13:48;92146.88;;;11.55;75.55
12471;BME280;36499;46.484;13.832;2023-04-24T03:16:15;92146.59;;;11.57;75.84
12471;BME280;36499;46.484;13.832;2023-04-24T03:18:42;92152.09;;;11.55;76.61
12471;BME280;36499;46.484;13.832;2023-04-24T03:21:09;92141.88;;;11.54;77.12
12471;BME280;36499;46.484;13.832;2023-04-24T03:23:37;92140.53;;;11.51;77.41
12471;BME280;36499;46.484;13.832;2023-04-24T03:26:05;92145.03;;;11.56;76.65
12471;BME280;36499;46.484;13.832;2023-04-24T03:28:32;92142.44;;;11.56;76.51
12471;BME280;36499;46.484;13.832;2023-04-24T03:30:59;92130.63;;;11.53;77.67
12471;BME280;36499;46.484;13.832;2023-04-24T03:33:26;92128.03;;;11.53;77.62
12471;BME280;36499;46.484;13.832;2023-04-24T03:35:53;92131.19;;;11.55;77.42
12471;BME280;36499;46.484;13.832;2023-04-24T03:38:20;92126.78;;;11.56;77.08
12471;BME280;36499;46.484;13.832;2023-04-24T03:40:49;92130.63;;;11.53;77.22
12471;BME280;36499;46.484;13.832;2023-04-24T03:43:16;92129.09;;;11.52;77.74
12471;BME280;36499;46.484;13.832;2023-04-24T03:45:43;92136.13;;;11.52;77.55
12471;BME280;36499;46.484;13.832;2023-04-24T03:48:10;92135.81;;;11.48;78.07
12471;BME280;36499;46.484;13.832;2023-04-24T03:50:37;92132.56;;;11.41;77.80
12471;BME280;36499;46.484;13.832;2023-04-24T03:53:04;92135.13;;;11.36;78.15
12471;BME280;36499;46.484;13.832;2023-04-24T03:55:31;92137.16;;;11.34;78.19
12471;BME280;36499;46.484;13.832;2023-04-24T03:57:59;92130.94;;;11.35;77.72
12471;BME280;36499;46.484;13.832;2023-04-24T04:00:26;92141.38;;;11.35;78.53
12471;BME280;36499;46.484;13.832;2023-04-24T04:02:53;92142.25;;;11.41;78.55
12471;BME280;36499;46.484;13.832;2023-04-24T04:05:20;92137.56;;;11.43;78.47
12471;BME280;36499;46.484;13.832;2023-04-24T04:07:47;92138.34;;;11.43;78.36
12471;BME280;36499;46.484;13.832;2023-04-24T04:10:14;92127.69;;;11.45;79.09
12471;BME280;36499;46.484;13.832;2023-04-24T04:12:42;92133.97;;;11.49;79.25
12471;BME280;36499;46.484;13.832;2023-04-24T04:15:11;92132.63;;;11.46;79.46
12471;BME280;36499;46.484;13.832;2023-04-24T04:17:38;92129.22;;;11.46;80.25
12471;BME280;36499;46.484;13.832;2023-04-24T04:20:07;92132.09;;;11.44;80.43
12471;BME280;36499;46.484;13.832;2023-04-24T04:22:35;92129.50;;;11.44;80.50
12471;BME280;36499;46.484;13.832;2023-04-24T04:25:03;92130.50;;;11.43;80.06
12471;BME280;36499;46.484;13.832;2023-04-24T04:27:30;92133.91;;;11.44;80.28
12471;BME280;36499;46.484;13.832;2023-04-24T04:29:58;92136.53;;;11.44;80.42
12471;BME280;36499;46.484;13.832;2023-04-24T04:32:28;92140.38;;;11.41;80.47
12471;BME280;36499;46.484;13.832;2023-04-24T04:34:55;92137.56;;;11.43;80.49
12471;BME280;36499;46.484;13.832;2023-04-24T04:37:22;92139.44;;;11.47;81.26
12471;BME280;36499;46.484;13.832;2023-04-24T04:39:49;92141.94;;;11.37;81.78
12471;BME280;36499;46.484;13.832;2023-04-24T04:42:16;92143.97;;;11.35;81.67
12471;BME280;36499;46.484;13.832;2023-04-24T04:44:44;92139.31;;;11.37;82.76
12471;BME280;36499;46.484;13.832;2023-04-24T04:47:12;92140.34;;;11.36;83.09
12471;BME280;36499;46.484;13.832;2023-04-24T04:49:41;92140.75;;;11.28;83.25
12471;BME280;36499;46.484;13.832;2023-04-24T04:52:08;92140.25;;;11.31;83.68
12471;BME280;36499;46.484;13.832;2023-04-24T04:54:35;92134.56;;;11.34;83.59
12471;BME280;36499;46.484;13.832;2023-04-24T04:57:03;92143.97;;;11.35;83.92
12471;BME280;36499;46.484;13.832;2023-04-24T04:59:30;92154.91;;;11.32;83.13
12471;BME280;36499;46.484;13.832;2023-04-24T05:01:57;92159.41;;;11.37;82.77
12471;BME280;36499;46.484;13.832;2023-04-24T05:04:24;92156.31;;;11.40;82.78
12471;BME280;36499;46.484;13.832;2023-04-24T05:06:52;92157.41;;;11.44;82.53
12471;BME280;36499;46.484;13.832;2023-04-24T05:09:19;92151.41;;;11.43;82.31
12471;BME280;36499;46.484;13.832;2023-04-24T05:11:46;92152.72;;;11.46;83.11
12471;BME280;36499;46.484;13.832;2023-04-24T05:14:13;92150.41;;;11.49;83.01
12471;BME280;36499;46.484;13.832;2023-04-24T05:16:40;92154.38;;;11.52;84.15
12471;BME280;36499;46.484;13.832;2023-04-24T05:19:08;92157.13;;;11.79;83.77
12471;BME280;36499;46.484;13.832;2023-04-24T05:21:35;92151.31;;;12.20;81.16
12471;BME280;36499;46.484;13.832;2023-04-24T05:24:03;92148.03;;;12.30;79.82
12471;BME280;36499;46.484;13.832;2023-04-24T05:26:30;92156.22;;;12.38;80.27
12471;BME280;36499;46.484;13.832;2023-04-24T05:28:57;92151.38;;;12.52;79.81
12471;BME280;36499;46.484;13.832;2023-04-24T05:31:24;92157.50;;;12.63;79.27
12471;BME280;36499;46.484;13.832;2023-04-24T05:33:52;92170.72;;;12.78;78.50
12471;BME280;36499;46.484;13.832;2023-04-24T05:36:19;92170.50;;;12.84;77.90
12471;BME280;36499;46.484;13.832;2023-04-24T05:38:46;92171.25;;;12.80;76.94
12471;BME280;36499;46.484;13.832;2023-04-24T05:41:14;92162.28;;;12.71;77.47
12471;BME280;36499;46.484;13.832;2023-04-24T05:43:41;92157.50;;;12.63;77.89
12471;BME280;36499;46.484;13.832;2023-04-24T05:46:08;92156.91;;;12.56;78.51
12471;BME280;36499;46.484;13.832;2023-04-24T05:48:35;92158.44;;;12.52;78.75
12471;BME280;36499;46.484;13.832;2023-04-24T05:51:03;92159.84;;;12.37;79.04
12471;BME280;36499;46.484;13.832;2023-04-24T05:53:30;92160.06;;;12.31;79.47
12471;BME280;36499;46.484;13.832;2023-04-24T05:55:57;92161.34;;;12.28;80.23
12471;BME280;36499;46.484;13.832;2023-04-24T05:58:25;92158.19;;;12.26;80.02
12471;BME280;36499;46.484;13.832;2023-04-24T06:00:52;92156.13;;;12.28;80.28
12471;BME280;36499;46.484;13.832;2023-04-24T06:03:20;92156.66;;;12.30;79.73
12471;BME280;36499;46.484;13.832;2023-04-24T06:05:49;92154.34;;;12.34;80.21
12471;BME280;36499;46.484;13.832;2023-04-24T06:08:16;92145.75;;;12.38;79.91
12471;BME280;36499;46.484;13.832;2023-04-24T06:10:44;92151.56;;;12.45;79.65
12471;BME280;36499;46.484;13.832;2023-04-24T06:13:11;92157.09;;;12.49;79.49
12471;BME280;36499;46.484;13.832;2023-04-24T06:15:39;92153.53;;;12.55;79.40
12471;BME280;36499;46.484;13.832;2023-04-24T06:18:06;92153.81;;;12.59;79.56
12471;BME280;36499;46.484;13.832;2023-04-24T06:20:35;92155.94;;;12.62;78.80
12471;BME280;36499;46.484;13.832;2023-04-24T06:23:02;92161.69;;;12.64;79.16
12471;BME280;36499;46.484;13.832;2023-04-24T06:25:30;92158.84;;;12.65;78.64
12471;BME280;36499;46.484;13.832;2023-04-24T06:27:57;92149.19;;;12.71;78.66
12471;BME280;36499;46.484;13.832;2023-04-24T06:30:24;92151.28;;;12.69;78.34
12471;BME280;36499;46.484;13.832;2023-04-24T06:32:54;92145.53;;;12.72;78.05
12471;BME280;36499;46.484;13.832;2023-04-24T06:35:21;92147.94;;;12.73;77.34
12471;BME280;36499;46.484;13.832;2023-04-24T06:37:48;92145.84;;;12.75;77.11
12471;BME280;36499;46.484;13.832;2023-04-24T06:40:15;92146.91;;;12.79;77.16
12471;BME280;36499;46.484;13.832;2023-04-24T06:42:44;92145.03;;;12.75;76.03
12471;BME280;36499;46.484;13.832;2023-04-24T06:45:11;92145.34;;;12.78;75.90
12471;BME280;36499;46.484;13.832;2023-04-24T06:47:38;92144.06;;;12.81;75.66
12471;BME280;36499;46.484;13.832;2023-04-24T06:50:08;92139.91;;;12.85;75.53
12471;BME280;36499;46.484;13.832;2023-04-24T06:52:35;92141.19;;;12.82;75.80
12471;BME280;36499;46.484;13.832;2023-04-24T06:55:03;92136.88;;;12.66;76.54
12471;BME280;36499;46.484;13.832;2023-04-24T06:57:31;92150.44;;;12.63;77.74
12471;BME280;36499;46.484;13.832;2023-04-24T06:59:58;92146.50;;;12.61;77.20
12471;BME280;36499;46.484;13.832;2023-04-24T07:02:25;92151.00;;;12.65;76.94
12471;BME280;36499;46.484;13.832;2023-04-24T07:04:52;92141.06;;;12.67;77.22
12471;BME280;36499;46.484;13.832;2023-04-24T07:07:20;92144.00;;;12.76;76.44
12471;BME280;36499;46.484;13.832;2023-04-24T07:09:49;92141.41;;;12.76;76.38
12471;BME280;36499;46.484;13.832;2023-04-24T07:12:16;92150.84;;;12.77;76.83
12471;BME280;36499;46.484;13.832;2023-04-24T07:14:46;92155.50;;;12.75;76.53
12471;BME280;36499;46.484;13.832;2023-04-24T07:17:13;92154.25;;;12.77;76.15
12471;BME280;36499;46.484;13.832;2023-04-24T07:19:41;92148.22;;;12.77;74.83
12471;BME280;36499;46.484;13.832;2023-04-24T07:22:08;92142.94;;;12.72;75.13
12471;BME280;36499;46.484;13.832;2023-04-24T07:24:38;92157.31;;;12.69;75.40
12471;BME280;36499;46.484;13.832;2023-04-24T07:27:05;92147.59;;;12.65;75.17
12471;BME280;36499;46.484;13.832;2023-04-24T07:29:32;92140.31;;;12.72;75.18
12471;BME280;36499;46.484;13.832;2023-04-24T07:31:59;92140.81;;;12.69;74.71
12471;BME280;36499;46.484;13.832;2023-04-24T07:34:26;92144.75;;;12.71;74.86
12471;BME280;36499;46.484;13.832;2023-04-24T07:36:53;92143.50;;;12.79;74.68
12471;BME280;36499;46.484;13.832;2023-04-24T07:39:20;92144.09;;;12.86;74.80
12471;BME280;36499;46.484;13.832;2023-04-24T07:41:49;92144.16;;;12.91;74.49
12471;BME280;36499;46.484;13.832;2023-04-24T07:44:16;92138.97;;;12.96;74.79
12471;BME280;36499;46.484;13.832;2023-04-24T07:46:43;92142.66;;;13.00;74.69
12471;BME280;36499;46.484;13.832;2023-04-24T07:49:10;92140.84;;;13.06;74.59
12471;BME280;36499;46.484;13.832;2023-04-24T07:51:37;92144.81;;;13.08;74.50
12471;BME280;36499;46.484;13.832;2023-04-24T07:54:05;92144.03;;;13.08;74.26
12471;BME280;36499;46.484;13.832;2023-04-24T07:56:32;92147.19;;;13.10;74.55
12471;BME280;36499;46.484;13.832;2023-04-24T07:59:01;92150.16;;;13.18;74.96
12471;BME280;36499;46.484;13.832;2023-04-24T08:01:28;92143.31;;;13.17;74.91
12471;BME280;36499;46.484;13.832;2023-04-24T08:03:55;92153.28;;;13.20;74.96
12471;BME280;36499;46.484;13.832;2023-04-24T08:06:23;92152.25;;;13.21;75.24
12471;BME280;36499;46.484;13.832;2023-04-24T08:08:51;92146.50;;;13.19;74.93
12471;BME280;36499;46.484;13.832;2023-04-24T08:11:18;92141.25;;;13.19;74.96
12471;BME280;36499;46.484;13.832;2023-04-24T08:13:45;92149.63;;;13.21;74.70
12471;BME280;36499;46.484;13.832;2023-04-24T08:16:14;92146.72;;;13.18;74.33
12471;BME280;36499;46.484;13.832;2023-04-24T08:18:41;92145.38;;;13.10;74.28
12471;BME280;36499;46.484;13.832;2023-04-24T08:21:08;92148.41;;;13.02;73.90
12471;BME280;36499;46.484;13.832;2023-04-24T08:23:35;92155.97;;;12.98;74.13
12471;BME280;36499;46.484;13.832;2023-04-24T08:26:02;92149.16;;;12.97;74.53
12471;BME280;36499;46.484;13.832;2023-04-24T08:28:29;92149.13;;;12.92;74.72
12471;BME280;36499;46.484;13.832;2023-04-24T08:30:56;92154.09;;;12.89;75.24
12471;BME280;36499;46.484;13.832;2023-04-24T08:33:24;92159.25;;;12.84;76.04
12471;BME280;36499;46.484;13.832;2023-04-24T08:35:52;92158.22;;;12.85;76.42
12471;BME280;36499;46.484;13.832;2023-04-24T08:38:20;92166.59;;;12.82;76.96
12471;BME280;36499;46.484;13.832;2023-04-24T08:40:47;92174.59;;;12.70;78.16
12471;BME280;36499;46.484;13.832;2023-04-24T08:43:16;92178.47;;;12.68;79.69
12471;BME280;36499;46.484;13.832;2023-04-24T08:45:43;92179.19;;;12.63;80.30
12471;BME280;36499;46.484;13.832;2023-04-24T08:48:11;92182.00;;;12.57;80.20
12471;BME280;36499;46.484;13.832;2023-04-24T08:50:41;92177.59;;;12.57;80.42
12471;BME280;36499;46.484;13.832;2023-04-24T08:53:11;92182.81;;;12.57;79.76
12471;BME280;36499;46.484;13.832;2023-04-24T08:55:38;92192.22;;;12.31;79.24
12471;BME280;36499;46.484;13.832;2023-04-24T08:58:07;92196.88;;;12.29;76.09
12471;BME280;36499;46.484;13.832;2023-04-24T09:00:34;92198.78;;;12.12;73.49
12471;BME280;36499;46.484;13.832;2023-04-24T09:03:05;92209.97;;;11.86;71.76
12471;BME280;36499;46.484;13.832;2023-04-24T09:05:33;92210.66;;;11.65;73.48
12471;BME280;36499;46.484;13.832;2023-04-24T09:08:04;92214.81;;;11.44;80.26
12471;BME280;36499;46.484;13.832;2023-04-24T09:10:34;92230.47;;;11.27;83.13
12471;BME280;36499;46.484;13.832;2023-04-24T09:13:01;92237.59;;;11.15;83.91
12471;BME280;36499;46.484;13.832;2023-04-24T09:15:29;92251.59;;;11.09;85.45
12471;BME280;36499;46.484;13.832;2023-04-24T09:17:57;92251.03;;;11.07;86.10
12471;BME280;36499;46.484;13.832;2023-04-24T09:20:24;92257.94;;;10.85;87.32
12471;BME280;36499;46.484;13.832;2023-04-24T09:22:54;92261.13;;;10.87;86.09
12471;BME280;36499;46.484;13.832;2023-04-24T09:25:25;92259.53;;;10.86;87.60
12471;BME280;36499;46.484;13.832;2023-04-24T09:28:00;92262.19;;;10.74;87.36
12471;BME280;36499;46.484;13.832;2023-04-24T09:30:29;92265.59;;;10.75;86.75
12471;BME280;36499;46.484;13.832;2023-04-24T09:33:10;92266.75;;;10.67;85.07
12471;BME280;36499;46.484;13.832;2023-04-24T09:35:41;92264.00;;;10.74;86.10
12471;BME280;36499;46.484;13.832;2023-04-24T09:38:09;92259.63;;;10.91;86.10
12471;BME280;36499;46.484;13.832;2023-04-24T09:40:39;92268.63;;;11.00;86.54
12471;BME280;36499;46.484;13.832;2023-04-24T09:43:11;92263.28;;;11.23;84.81
12471;BME280;36499;46.484;13.832;2023-04-24T09:45:39;92267.28;;;10.97;84.14
12471;BME280;36499;46.484;13.832;2023-04-24T09:48:09;92250.44;;;10.88;84.07
12471;BME280;36499;46.484;13.832;2023-04-24T09:50:37;92262.13;;;10.86;83.80
12471;BME280;36499;46.484;13.832;2023-04-24T09:53:05;92254.03;;;10.99;85.55
12471;BME280;36499;46.484;13.832;2023-04-24T09:55:45;92261.84;;;10.99;85.55
12471;BME280;36499;46.484;13.832;2023-04-24T09:58:13;92256.81;;;11.09;85.43
12471;BME280;36499;46.484;13.832;2023-04-24T10:00:40;92257.91;;;11.13;85.78
12471;BME280;36499;46.484;13.832;2023-04-24T10:03:07;92250.56;;;11.10;85.96
12471;BME280;36499;46.484;13.832;2023-04-24T10:05:37;92251.25;;;11.05;86.52
12471;BME280;36499;46.484;13.832;2023-04-24T10:08:07;92253.06;;;11.05;86.46
12471;BME280;36499;46.484;13.832;2023-04-24T10:10:38;92253.06;;;11.05;86.69
12471;BME280;36499;46.484;13.832;2023-04-24T10:13:08;92251.59;;;11.09;85.68
12471;BME280;36499;46.484;13.832;2023-04-24T10:15:36;92253.50;;;11.14;85.95
12471;BME280;36499;46.484;13.832;2023-04-24T10:18:05;92253.88;;;11.05;87.45
12471;BME280;36499;46.484;13.832;2023-04-24T10:20:34;92246.91;;;10.94;88.46
12471;BME280;36499;46.484;13.832;2023-04-24T10:23:02;92250.31;;;10.95;88.00
12471;BME280;36499;46.484;13.832;2023-04-24T10:25:32;92251.81;;;10.63;86.73
12471;BME280;36499;46.484;13.832;2023-04-24T10:28:00;92262.44;;;10.73;84.41
12471;BME280;36499;46.484;13.832;2023-04-24T10:30:31;92260.91;;;10.77;82.93
12471;BME280;36499;46.484;13.832;2023-04-24T10:33:01;92255.00;;;10.81;81.59
12471;BME280;36499;46.484;13.832;2023-04-24T10:35:31;92259.56;;;10.57;80.57
12471;BME280;36499;46.484;13.832;2023-04-24T10:38:05;92257.03;;;10.63;79.21
12471;BME280;36499;46.484;13.832;2023-04-24T10:40:35;92253.22;;;10.53;79.03
12471;BME280;36499;46.484;13.832;2023-04-24T10:43:03;92255.91;;;10.58;79.02
12471;BME280;36499;46.484;13.832;2023-04-24T10:45:33;92248.44;;;10.50;78.66
12471;BME280;36499;46.484;13.832;2023-04-24T10:48:04;92255.34;;;10.56;78.29
12471;BME280;36499;46.484;13.832;2023-04-24T10:50:46;92250.91;;;10.69;81.57
12471;BME280;36499;46.484;13.832;2023-04-24T10:53:16;92252.00;;;10.73;80.69
12471;BME280;36499;46.484;13.832;2023-04-24T10:55:47;92251.88;;;10.79;81.31
12471;BME280;36499;46.484;13.832;2023-04-24T10:58:15;92257.25;;;10.89;82.08
12471;BME280;36499;46.484;13.832;2023-04-24T11:00:56;92250.31;;;10.95;81.61
12471;BME280;36499;46.484;13.832;2023-04-24T11:03:26;92243.81;;;10.97;80.78
12471;BME280;36499;46.484;13.832;2023-04-24T11:05:58;92251.16;;;11.00;82.52
12471;BME280;36499;46.484;13.832;2023-04-24T11:08:29;92252.59;;;11.08;80.75
12471;BME280;36499;46.484;13.832;2023-04-24T11:11:00;92242.16;;;11.08;82.16
12471;BME280;36499;46.484;13.832;2023-04-24T11:14:02;92240.75;;;11.00;80.73
12471;BME280;36499;46.484;13.832;2023-04-24T11:16:33;92239.38;;;10.81;83.09
12471;BME280;36499;46.484;13.832;2023-04-24T11:19:04;92239.09;;;10.94;82.81
12471;BME280;36499;46.484;13.832;2023-04-24T11:21:39;92235.03;;;10.87;82.76
12471;BME280;36499;46.484;13.832;2023-04-24T11:24:26;92235.09;;;10.92;84.16
12471;BME280;36499;46.484;13.832;2023-04-24T11:26:55;92234.81;;;11.05;83.31
12471;BME280;36499;46.484;13.832;2023-04-24T11:29:38;92233.22;;;10.87;81.37
12471;BME280;36499;46.484;13.832;2023-04-24T11:32:18;92238.66;;;10.86;81.02
12471;BME280;36499;46.484;13.832;2023-04-24T11:34:49;92235.69;;;10.94;80.16
12471;BME280;36499;46.484;13.832;2023-04-24T11:37:17;92234.19;;;10.98;80.94
12471;BME280;36499;46.484;13.832;2023-04-24T11:39:44;92226.34;;;10.81;78.13
12471;BME280;36499;46.484;13.832;2023-04-24T11:42:15;92232.81;;;10.79;76.14
12471;BME280;36499;46.484;13.832;2023-04-24T11:44:42;92227.38;;;10.80;76.33
12471;BME280;36499;46.484;13.832;2023-04-24T11:47:10;92230.69;;;10.92;77.00
12471;BME280;36499;46.484;13.832;2023-04-24T11:49:38;92209.38;;;10.95;76.52
12471;BME280;36499;46.484;13.832;2023-04-24T11:52:05;92214.44;;;11.02;77.59
12471;BME280;36499;46.484;13.832;2023-04-24T11:54:33;92220.69;;;11.18;79.30
12471;BME280;36499;46.484;13.832;2023-04-24T11:57:04;92219.97;;;11.22;78.98
12471;BME280;36499;46.484;13.832;2023-04-24T11:59:36;92210.47;;;11.33;79.13
12471;BME280;36499;46.484;13.832;2023-04-24T12:02:03;92211.19;;;11.45;78.55
12471;BME280;36499;46.484;13.832;2023-04-24T12:04:40;92216.63;;;11.43;77.05
12471;BME280;36499;46.484;13.832;2023-04-24T12:07:07;92212.59;;;11.52;78.26
12471;BME280;36499;46.484;13.832;2023-04-24T12:09:43;92207.28;;;11.64;78.61
12471;BME280;36499;46.484;13.832;2023-04-24T12:12:12;92205.53;;;11.70;78.44
12471;BME280;36499;46.484;13.832;2023-04-24T12:14:48;92209.03;;;11.75;78.19
12471;BME280;36499;46.484;13.832;2023-04-24T12:17:16;92206.88;;;11.72;79.41
12471;BME280;36499;46.484;13.832;2023-04-24T12:19:48;92203.38;;;11.83;80.02
12471;BME280;36499;46.484;13.832;2023-04-24T12:22:16;92209.25;;;11.90;80.02
12471;BME280;36499;46.484;13.832;2023-04-24T12:24:57;92215.66;;;11.83;79.31
12471;BME280;36499;46.484;13.832;2023-04-24T12:27:26;92208.94;;;11.87;79.95
12471;BME280;36499;46.484;13.832;2023-04-24T12:29:55;92210.00;;;11.91;80.76
12471;BME280;36499;46.484;13.832;2023-04-24T12:32:24;92200.53;;;11.85;80.97
12471;BME280;36499;46.484;13.832;2023-04-24T12:34:54;92207.38;;;11.91;81.42
12471;BME280;36499;46.484;13.832;2023-04-24T12:37:24;92205.34;;;11.93;80.66
12471;BME280;36499;46.484;13.832;2023-04-24T12:40:04;92210.94;;;12.01;80.65
12471;BME280;36499;46.484;13.832;2023-04-24T12:42:33;92202.13;;;11.86;79.05
12471;BME280;36499;46.484;13.832;2023-04-24T12:45:02;92195.53;;;11.83;78.73
12471;BME280;36499;46.484;13.832;2023-04-24T12:47:31;92197.31;;;11.78;79.43
12471;BME280;36499;46.484;13.832;2023-04-24T12:50:00;92201.09;;;11.70;80.16
12471;BME280;36499;46.484;13.832;2023-04-24T12:52:29;92198.28;;;11.72;80.51
12471;BME280;36499;46.484;13.832;2023-04-24T12:54:58;92198.09;;;11.78;81.60
12471;BME280;36499;46.484;13.832;2023-04-24T12:57:27;92198.47;;;11.87;80.24